createdAt,value
2022-11-29T00:01:05.159Z,33.17
2022-11-29T00:03:32.209Z,29.83
2022-11-29T00:06:14.599Z,30.83
2022-11-29T00:08:42.620Z,27.03
2022-11-29T00:11:35.728Z,35.43
2022-11-29T00:14:02.766Z,32.13
2022-11-29T00:16:30.115Z,30.30
2022-11-29T00:18:56.979Z,32.70
2022-11-29T00:21:23.937Z,41.77
2022-11-29T00:23:50.596Z,38.57
2022-11-29T00:26:17.368Z,33.97
2022-11-29T00:28:44.096Z,40.47
2022-11-29T00:31:19.826Z,31.20
2022-11-29T00:33:46.885Z,39.53
2022-11-29T00:36:13.676Z,37.93
2022-11-29T00:38:40.621Z,35.83
2022-11-29T00:41:07.711Z,35.57
2022-11-29T00:43:34.617Z,44.17
2022-11-29T00:46:01.962Z,39.20
2022-11-29T00:48:28.861Z,47.97
2022-11-29T00:50:55.641Z,43.13
2022-11-29T00:53:22.524Z,42.60
2022-11-29T00:55:51.074Z,38.83
2022-11-29T00:58:18.059Z,41.87
2022-11-29T01:00:44.916Z,42.60
2022-11-29T01:03:11.811Z,50.40
2022-11-29T01:05:38.462Z,51.90
2022-11-29T01:08:05.414Z,52.70
2022-11-29T01:10:32.395Z,53.73
2022-11-29T01:12:59.027Z,52.10
2022-11-29T01:15:25.627Z,50.30
2022-11-29T01:17:53.329Z,50.30
2022-11-29T01:20:20.573Z,50.03
2022-11-29T01:22:47.192Z,45.20
2022-11-29T01:25:14.110Z,54.23
2022-11-29T01:27:41.302Z,45.63
2022-11-29T01:30:09.602Z,41.13
2022-11-29T01:32:36.884Z,43.60
2022-11-29T01:35:05.458Z,54.70
2022-11-29T01:37:32.385Z,54.57
2022-11-29T01:39:59.000Z,47.03
2022-11-29T01:42:25.608Z,47.43
2022-11-29T01:45:26.112Z,49.57
2022-11-29T01:47:56.504Z,45.50
2022-11-29T01:50:23.143Z,45.20
2022-11-29T01:52:49.850Z,42.30
2022-11-29T01:55:16.715Z,45.10
2022-11-29T01:57:44.120Z,41.63
2022-11-29T02:00:14.755Z,60.63
2022-11-29T02:02:46.352Z,43.53
2022-11-29T02:05:14.923Z,33.83
2022-11-29T02:07:45.738Z,45.17
2022-11-29T02:10:15.212Z,35.13
2022-11-29T02:13:00.864Z,37.00
2022-11-29T02:15:49.030Z,36.90
2022-11-29T02:18:27.733Z,39.80
2022-11-29T02:21:14.393Z,46.80
2022-11-29T02:24:01.323Z,42.73
2022-11-29T02:27:02.444Z,45.60
2022-11-29T02:29:49.936Z,64.83
2022-11-29T02:32:34.758Z,46.13
2022-11-29T02:35:28.851Z,65.07
2022-11-29T02:38:36.106Z,103.87
2022-11-29T02:41:27.366Z,78.10
2022-11-29T02:44:21.997Z,102.13
2022-11-29T02:47:08.021Z,89.10
2022-11-29T02:49:55.985Z,67.70
2022-11-29T02:52:48.544Z,106.30
2022-11-29T02:55:29.526Z,53.77
2022-11-29T02:58:05.588Z,299.77
2022-11-29T03:00:35.407Z,266.23
2022-11-29T03:03:23.992Z,255.73
2022-11-29T03:06:21.277Z,126.57
2022-11-29T03:09:00.632Z,51.70
2022-11-29T03:11:41.037Z,55.60
2022-11-29T03:14:51.242Z,150.03
2022-11-29T03:17:34.121Z,359.30
2022-11-29T03:20:28.946Z,451.63
2022-11-29T03:23:18.827Z,94.27
2022-11-29T03:26:04.407Z,225.60
2022-11-29T03:29:06.989Z,188.93
2022-11-29T03:31:40.026Z,286.23
2022-11-29T03:34:36.017Z,300.53
2022-11-29T03:37:32.885Z,186.77
2022-11-29T03:40:07.694Z,97.07
2022-11-29T03:42:54.885Z,180.77
2022-11-29T03:45:29.226Z,95.10
2022-11-29T03:48:05.049Z,115.40
2022-11-29T03:50:54.560Z,103.30
2022-11-29T03:53:33.342Z,175.67
2022-11-29T03:56:38.423Z,100.97
2022-11-29T03:59:12.173Z,267.40
2022-11-29T04:02:21.085Z,213.13
2022-11-29T04:05:19.513Z,103.57
2022-11-29T04:08:36.338Z,108.27
2022-11-29T04:11:24.522Z,351.63
2022-11-29T04:13:57.673Z,142.60
2022-11-29T04:16:41.097Z,139.03
2022-11-29T04:19:41.695Z,519.93
2022-11-29T04:22:32.624Z,245.40
2022-11-29T04:25:53.653Z,174.43
2022-11-29T04:29:02.087Z,495.20
2022-11-29T04:31:45.577Z,405.87
2022-11-29T04:34:38.593Z,128.93
2022-11-29T04:37:53.321Z,115.50
2022-11-29T04:40:49.402Z,105.33
2022-11-29T04:44:00.774Z,121.70
2022-11-29T04:47:11.843Z,273.53
2022-11-29T04:49:47.597Z,162.80
2022-11-29T04:52:27.149Z,176.87
2022-11-29T04:55:31.419Z,146.63
2022-11-29T04:58:14.332Z,252.97
2022-11-29T05:00:55.116Z,155.40
2022-11-29T05:03:35.262Z,161.63
2022-11-29T05:06:20.227Z,347.30
2022-11-29T05:09:24.376Z,234.07
2022-11-29T05:12:05.229Z,146.83
2022-11-29T05:14:53.177Z,429.80
2022-11-29T05:17:44.900Z,226.03
2022-11-29T05:20:41.928Z,479.07
2022-11-29T05:23:49.963Z,192.20
2022-11-29T05:26:57.351Z,141.33
2022-11-29T05:29:45.451Z,415.70
2022-11-29T05:32:53.933Z,209.57
2022-11-29T05:35:40.821Z,278.33
2022-11-29T05:38:32.801Z,380.30
2022-11-29T05:41:28.360Z,181.90
2022-11-29T05:44:10.267Z,387.03
2022-11-29T05:46:46.092Z,228.87
2022-11-29T05:49:30.939Z,300.63
2022-11-29T05:51:57.513Z,593.70
2022-11-29T05:54:31.179Z,397.53
2022-11-29T05:57:28.853Z,449.47
2022-11-29T05:59:57.337Z,137.07
2022-11-29T06:02:50.982Z,134.00
2022-11-29T06:05:28.710Z,384.10
2022-11-29T06:08:08.289Z,152.40
2022-11-29T06:10:39.911Z,125.63
2022-11-29T06:13:21.837Z,130.43
2022-11-29T06:16:06.833Z,248.33
2022-11-29T06:18:39.171Z,64.43
2022-11-29T06:21:25.587Z,197.77
2022-11-29T06:24:18.582Z,89.80
2022-11-29T06:26:54.568Z,71.50
2022-11-29T06:29:33.423Z,100.93
2022-11-29T06:32:12.920Z,82.27
2022-11-29T06:34:53.343Z,60.60
2022-11-29T06:37:23.723Z,69.73
2022-11-29T06:39:50.592Z,57.97
2022-11-29T06:42:17.325Z,53.57
2022-11-29T06:44:44.533Z,72.20
2022-11-29T06:47:39.532Z,154.53
2022-11-29T06:50:30.053Z,94.53
2022-11-29T06:53:08.588Z,181.67
2022-11-29T06:56:07.878Z,72.13
2022-11-29T06:58:58.814Z,297.17
2022-11-29T07:01:34.023Z,280.37
2022-11-29T07:04:45.462Z,101.30
2022-11-29T07:07:20.027Z,133.97
2022-11-29T07:09:50.252Z,160.57
2022-11-29T07:12:17.719Z,239.37
2022-11-29T07:14:45.336Z,163.00
2022-11-29T07:17:38.467Z,132.00
2022-11-29T07:20:35.532Z,152.77
2022-11-29T07:23:25.368Z,124.30
2022-11-29T07:26:12.266Z,161.87
2022-11-29T07:28:59.839Z,175.93
2022-11-29T07:32:04.137Z,168.37
2022-11-29T07:34:54.876Z,158.63
2022-11-29T07:37:43.976Z,186.93
2022-11-29T07:40:37.726Z,229.23
2022-11-29T07:43:19.180Z,204.67
2022-11-29T07:45:45.889Z,192.67
2022-11-29T07:48:13.330Z,205.30
2022-11-29T07:50:40.917Z,213.83
2022-11-29T07:53:09.236Z,223.23
2022-11-29T07:55:36.937Z,206.10
2022-11-29T07:58:03.532Z,176.00
2022-11-29T08:00:30.200Z,165.87
2022-11-29T08:02:56.784Z,158.33
2022-11-29T08:05:23.910Z,140.63
2022-11-29T08:07:51.540Z,133.57
2022-11-29T08:10:18.181Z,135.90
2022-11-29T08:12:48.519Z,128.70
2022-11-29T08:15:15.735Z,143.83
2022-11-29T08:17:42.407Z,134.27
2022-11-29T08:20:10.442Z,128.97
2022-11-29T08:22:37.235Z,134.10
2022-11-29T08:25:04.959Z,117.73
2022-11-29T08:27:31.870Z,149.00
2022-11-29T08:29:58.629Z,122.07
2022-11-29T08:32:26.328Z,132.80
2022-11-29T08:34:53.037Z,134.77
2022-11-29T08:37:19.729Z,114.80
2022-11-29T08:39:46.320Z,104.83
2022-11-29T08:42:13.064Z,126.50
2022-11-29T08:44:39.813Z,108.70
2022-11-29T08:47:25.213Z,116.37
2022-11-29T08:50:01.092Z,109.93
2022-11-29T08:52:51.480Z,117.17
2022-11-29T08:55:20.069Z,118.20
2022-11-29T08:57:48.130Z,106.87
2022-11-29T09:00:15.453Z,105.37
2022-11-29T09:02:42.199Z,105.50
2022-11-29T09:05:10.775Z,115.37
2022-11-29T09:07:38.098Z,106.53
2022-11-29T09:10:08.078Z,111.03
2022-11-29T09:12:36.133Z,101.93
2022-11-29T09:15:05.339Z,95.23
2022-11-29T09:17:32.060Z,88.33
2022-11-29T09:19:58.644Z,76.37
2022-11-29T09:22:25.683Z,87.70
2022-11-29T09:24:52.273Z,80.67
2022-11-29T09:27:18.929Z,83.83
2022-11-29T09:29:45.599Z,77.60
2022-11-29T09:32:12.218Z,92.40
2022-11-29T09:34:38.823Z,76.63
2022-11-29T09:37:05.862Z,72.27
2022-11-29T09:39:32.574Z,61.43
2022-11-29T09:42:34.645Z,62.87
2022-11-29T09:45:09.657Z,62.93
2022-11-29T09:48:23.138Z,59.27
2022-11-29T09:51:06.402Z,71.20
2022-11-29T09:53:43.675Z,56.80
2022-11-29T09:56:44.582Z,64.10
2022-11-29T09:59:27.341Z,60.07
2022-11-29T10:02:04.222Z,65.47
2022-11-29T10:04:40.262Z,58.10
2022-11-29T10:07:17.738Z,61.37
2022-11-29T10:09:56.816Z,64.73
2022-11-29T10:12:40.660Z,57.33
2022-11-29T10:15:21.057Z,59.70
2022-11-29T10:17:47.622Z,60.33
2022-11-29T10:20:22.593Z,58.10
2022-11-29T10:23:10.909Z,58.33
2022-11-29T10:25:49.718Z,59.13
2022-11-29T10:28:19.717Z,70.33
2022-11-29T10:30:46.957Z,70.33
2022-11-29T10:33:20.968Z,80.67
2022-11-29T10:35:50.778Z,69.87
2022-11-29T10:38:33.212Z,61.10
2022-11-29T10:41:10.750Z,77.63
2022-11-29T10:43:38.337Z,71.17
2022-11-29T10:46:09.396Z,70.50
2022-11-29T10:48:36.076Z,77.53
2022-11-29T10:51:03.318Z,68.97
2022-11-29T10:53:36.949Z,63.67
2022-11-29T10:56:30.973Z,60.00
2022-11-29T10:59:04.960Z,79.70
2022-11-29T11:01:33.618Z,76.70
2022-11-29T11:04:03.113Z,74.17
2022-11-29T11:07:06.081Z,76.80
2022-11-29T11:09:40.328Z,80.53
2022-11-29T11:12:16.164Z,79.53
2022-11-29T11:14:45.642Z,86.03
2022-11-29T11:17:26.221Z,88.33
2022-11-29T11:20:20.185Z,73.53
2022-11-29T11:23:32.519Z,84.90
2022-11-29T11:26:02.825Z,80.43
2022-11-29T11:28:49.936Z,66.87
2022-11-29T11:31:26.734Z,79.80
2022-11-29T11:33:53.529Z,73.33
2022-11-29T11:36:20.081Z,68.43
2022-11-29T11:39:11.229Z,68.40
2022-11-29T11:42:06.418Z,71.57
2022-11-29T11:44:49.359Z,80.47
2022-11-29T11:47:20.840Z,77.03
2022-11-29T11:50:02.449Z,98.07
2022-11-29T11:52:39.582Z,82.00
2022-11-29T11:55:23.115Z,101.60
2022-11-29T11:58:09.673Z,95.67
2022-11-29T12:01:03.888Z,90.17
2022-11-29T12:03:34.903Z,97.60
2022-11-29T12:06:23.104Z,110.60
2022-11-29T12:08:51.079Z,88.57
2022-11-29T12:11:19.852Z,91.20
2022-11-29T12:13:53.821Z,93.63
2022-11-29T12:16:29.362Z,100.63
2022-11-29T12:19:07.561Z,101.60
2022-11-29T12:21:40.335Z,103.17
2022-11-29T12:24:33.015Z,101.97
2022-11-29T12:27:04.806Z,91.73
2022-11-29T12:29:34.262Z,91.63
2022-11-29T12:32:25.547Z,116.63
2022-11-29T12:34:55.266Z,114.30
2022-11-29T12:37:34.451Z,128.63
2022-11-29T12:40:41.538Z,155.17
2022-11-29T12:43:24.899Z,144.87
2022-11-29T12:46:08.939Z,144.97
2022-11-29T12:49:09.077Z,135.43
2022-11-29T12:52:03.135Z,133.57
2022-11-29T12:54:38.578Z,114.63
2022-11-29T12:57:20.849Z,127.53
2022-11-29T13:00:01.017Z,151.93
2022-11-29T13:02:36.708Z,132.50
2022-11-29T13:05:19.419Z,124.50
2022-11-29T13:08:07.220Z,123.40
2022-11-29T13:10:39.801Z,121.50
2022-11-29T13:13:38.706Z,134.63
2022-11-29T13:16:31.420Z,135.90
2022-11-29T13:19:07.928Z,125.73
2022-11-29T13:21:46.212Z,133.90
2022-11-29T13:24:16.677Z,137.30
2022-11-29T13:26:44.170Z,123.67
2022-11-29T13:29:17.993Z,153.03
2022-11-29T13:31:46.617Z,160.10
2022-11-29T13:34:40.651Z,148.53
2022-11-29T13:37:26.154Z,158.10
2022-11-29T13:39:55.731Z,161.67
2022-11-29T13:42:22.331Z,173.03
2022-11-29T13:45:10.547Z,161.57
2022-11-29T13:47:59.917Z,180.83
2022-11-29T13:50:42.821Z,171.83
2022-11-29T13:53:17.082Z,158.90
2022-11-29T13:56:00.208Z,166.97
2022-11-29T13:58:35.137Z,171.27
2022-11-29T14:01:05.603Z,158.90
2022-11-29T14:03:42.237Z,167.73
2022-11-29T14:06:23.406Z,165.13
2022-11-29T14:09:17.915Z,196.23
2022-11-29T14:11:42.100Z,204.10
2022-11-29T14:14:34.615Z,179.03
2022-11-29T14:17:04.423Z,179.63
2022-11-29T14:19:34.477Z,162.20
2022-11-29T14:22:07.148Z,150.67
2022-11-29T14:24:37.661Z,145.43
2022-11-29T14:27:15.886Z,137.17
2022-11-29T14:29:52.691Z,134.63
2022-11-29T14:32:45.936Z,132.63
2022-11-29T14:35:13.055Z,144.50
2022-11-29T14:38:13.012Z,123.47
2022-11-29T14:40:42.688Z,116.63
2022-11-29T14:43:32.602Z,131.30
2022-11-29T14:46:16.533Z,130.27
2022-11-29T14:48:54.597Z,109.53
2022-11-29T14:51:22.752Z,106.73
2022-11-29T14:54:06.400Z,114.00
2022-11-29T14:56:34.936Z,102.33
2022-11-29T14:59:38.608Z,117.03
2022-11-29T15:02:27.732Z,114.37
2022-11-29T15:05:04.942Z,119.67
2022-11-29T15:07:33.069Z,100.23
2022-11-29T15:10:04.008Z,102.53
2022-11-29T15:12:36.248Z,104.33
2022-11-29T15:15:21.487Z,110.87
2022-11-29T15:18:06.697Z,105.30
2022-11-29T15:21:06.842Z,101.10
2022-11-29T15:23:41.592Z,105.30
2022-11-29T15:26:19.094Z,90.37
2022-11-29T15:28:45.946Z,101.07
2022-11-29T15:31:20.064Z,98.37
2022-11-29T15:33:49.130Z,104.20
2022-11-29T15:36:21.002Z,94.27
2022-11-29T15:38:53.560Z,101.03
2022-11-29T15:41:40.409Z,100.17
2022-11-29T15:44:19.400Z,89.73
2022-11-29T15:46:45.988Z,101.43
2022-11-29T15:49:24.003Z,93.30
2022-11-29T15:51:56.769Z,101.07
2022-11-29T15:54:29.912Z,86.53
2022-11-29T15:57:00.687Z,87.30
2022-11-29T15:59:33.193Z,93.47
2022-11-29T16:02:07.521Z,98.50
2022-11-29T16:04:43.587Z,103.30
2022-11-29T16:07:13.736Z,95.83
2022-11-29T16:09:44.412Z,95.93
2022-11-29T16:12:16.849Z,95.30
2022-11-29T16:14:56.425Z,101.27
2022-11-29T16:17:32.431Z,113.63
2022-11-29T16:20:24.976Z,99.03
2022-11-29T16:23:11.282Z,105.27
2022-11-29T16:25:59.351Z,125.93
2022-11-29T16:28:33.673Z,107.67
2022-11-29T16:31:00.518Z,129.43
2022-11-29T16:33:27.918Z,114.03
2022-11-29T16:36:25.074Z,130.10
2022-11-29T16:38:54.483Z,122.43
2022-11-29T16:41:38.250Z,121.00
2022-11-29T16:44:06.744Z,129.20
2022-11-29T16:46:39.219Z,128.93
2022-11-29T16:49:31.648Z,123.87
2022-11-29T16:51:58.390Z,169.60
2022-11-29T16:54:26.184Z,132.17
2022-11-29T16:56:54.422Z,121.77
2022-11-29T16:59:27.205Z,111.70
2022-11-29T17:01:56.665Z,129.67
2022-11-29T17:04:24.685Z,111.17
2022-11-29T17:06:53.596Z,120.70
2022-11-29T17:09:24.345Z,119.23
2022-11-29T17:11:51.629Z,110.80
2022-11-29T17:14:18.203Z,125.93
2022-11-29T17:16:44.964Z,97.37
2022-11-29T17:19:12.800Z,109.70
2022-11-29T17:21:39.882Z,115.67
2022-11-29T17:24:09.373Z,110.10
2022-11-29T17:26:35.981Z,114.30
2022-11-29T17:29:02.614Z,128.67
2022-11-29T17:31:30.030Z,108.80
2022-11-29T17:33:59.606Z,119.70
2022-11-29T17:36:26.362Z,110.20
2022-11-29T17:38:52.960Z,123.10
2022-11-29T17:41:22.783Z,103.60
2022-11-29T17:43:51.276Z,105.13
2022-11-29T17:46:21.549Z,127.83
2022-11-29T17:48:49.165Z,112.67
2022-11-29T17:51:49.871Z,107.37
2022-11-29T17:54:05.594Z,103.77
2022-11-29T17:56:32.379Z,104.47
2022-11-29T17:59:01.514Z,89.40
2022-11-29T18:01:30.975Z,101.90
2022-11-29T18:04:00.083Z,118.00
2022-11-29T18:06:28.922Z,113.10
2022-11-29T18:08:57.795Z,127.10
2022-11-29T18:11:46.993Z,120.93
2022-11-29T18:14:16.877Z,111.07
2022-11-29T18:16:45.265Z,119.37
2022-11-29T18:19:14.975Z,112.20
2022-11-29T18:21:41.749Z,120.10
2022-11-29T18:24:08.979Z,112.97
2022-11-29T18:26:36.922Z,96.10
2022-11-29T18:29:05.194Z,117.90
2022-11-29T18:31:34.758Z,121.10
2022-11-29T18:34:06.715Z,130.73
2022-11-29T18:36:39.345Z,125.40
2022-11-29T18:39:08.819Z,113.00
2022-11-29T18:41:35.768Z,132.17
2022-11-29T18:44:08.779Z,138.63
2022-11-29T18:46:37.396Z,148.97
2022-11-29T18:49:07.117Z,136.60
2022-11-29T18:51:35.022Z,120.60
2022-11-29T18:54:02.263Z,113.70
2022-11-29T18:56:31.190Z,136.27
2022-11-29T18:59:00.243Z,118.47
2022-11-29T19:01:29.463Z,113.10
2022-11-29T19:03:58.457Z,109.83
2022-11-29T19:06:28.020Z,107.30
2022-11-29T19:08:56.897Z,120.80
2022-11-29T19:11:24.699Z,122.10
2022-11-29T19:13:56.751Z,126.07
2022-11-29T19:16:25.429Z,176.30
2022-11-29T19:18:55.340Z,128.43
2022-11-29T19:21:23.614Z,116.60
2022-11-29T19:23:55.573Z,108.23
2022-11-29T19:26:25.094Z,121.57
2022-11-29T19:28:51.920Z,111.67
2022-11-29T19:31:20.333Z,120.87
2022-11-29T19:33:47.016Z,121.73
2022-11-29T19:36:33.919Z,141.43
2022-11-29T19:39:01.708Z,114.07
2022-11-29T19:41:30.660Z,126.07
2022-11-29T19:43:59.409Z,134.63
2022-11-29T19:46:31.635Z,137.63
2022-11-29T19:48:59.692Z,126.17
2022-11-29T19:51:27.881Z,139.00
2022-11-29T19:53:56.852Z,111.77
2022-11-29T19:56:23.824Z,122.93
2022-11-29T19:58:51.198Z,126.00
2022-11-29T20:01:20.293Z,118.50
2022-11-29T20:03:46.982Z,128.20
2022-11-29T20:06:14.127Z,136.20
2022-11-29T20:08:41.860Z,127.73
2022-11-29T20:11:17.418Z,137.57
2022-11-29T20:13:46.915Z,120.43
2022-11-29T20:16:19.940Z,98.83
2022-11-29T20:18:51.155Z,122.97
2022-11-29T20:21:22.981Z,124.67
2022-11-29T20:23:54.083Z,124.93
2022-11-29T20:26:21.047Z,138.10
2022-11-29T20:28:48.003Z,124.80
2022-11-29T20:31:21.131Z,140.57
2022-11-29T20:33:48.535Z,136.63
2022-11-29T20:36:45.917Z,146.93
2022-11-29T20:39:40.676Z,133.20
2022-11-29T20:42:16.204Z,130.03
2022-11-29T20:44:51.839Z,131.50
2022-11-29T20:47:21.105Z,146.63
2022-11-29T20:49:48.502Z,134.67
2022-11-29T20:52:37.331Z,116.30
2022-11-29T20:55:04.981Z,146.57
2022-11-29T20:57:31.635Z,136.80
2022-11-29T20:59:59.604Z,148.97
2022-11-29T21:02:26.344Z,140.07
2022-11-29T21:04:52.958Z,130.70
2022-11-29T21:07:19.677Z,142.07
2022-11-29T21:09:46.371Z,141.33
2022-11-29T21:12:13.481Z,148.30
2022-11-29T21:14:40.365Z,149.97
2022-11-29T21:17:08.424Z,152.47
2022-11-29T21:19:35.589Z,151.63
2022-11-29T21:22:27.895Z,148.70
2022-11-29T21:25:00.251Z,158.60
2022-11-29T21:27:30.941Z,168.60
2022-11-29T21:29:57.920Z,130.80
2022-11-29T21:32:26.127Z,162.43
2022-11-29T21:34:52.972Z,163.67
2022-11-29T21:37:22.048Z,144.97
2022-11-29T21:39:51.376Z,137.60
2022-11-29T21:42:18.215Z,159.00
2022-11-29T21:44:45.264Z,152.47
2022-11-29T21:47:12.802Z,138.40
2022-11-29T21:49:39.937Z,158.70
2022-11-29T21:52:06.856Z,153.00
2022-11-29T21:54:33.591Z,125.33
2022-11-29T21:57:01.598Z,116.90
2022-11-29T21:59:28.268Z,117.43
2022-11-29T22:01:55.081Z,96.70
2022-11-29T22:04:21.823Z,93.40
2022-11-29T22:06:48.480Z,88.57
2022-11-29T22:09:15.080Z,98.57
2022-11-29T22:11:42.313Z,90.27
2022-11-29T22:14:14.968Z,79.17
2022-11-29T22:16:54.817Z,75.60
2022-11-29T22:19:24.103Z,75.27
2022-11-29T22:21:52.763Z,87.80
2022-11-29T22:24:21.440Z,73.53
2022-11-29T22:26:49.012Z,90.27
2022-11-29T22:29:16.139Z,73.07
2022-11-29T22:31:44.500Z,80.67
2022-11-29T22:34:11.618Z,85.20
2022-11-29T22:36:39.321Z,74.10
2022-11-29T22:39:06.740Z,80.77
2022-11-29T22:41:34.216Z,76.20
2022-11-29T22:44:00.993Z,68.73
2022-11-29T22:46:28.622Z,81.10
2022-11-29T22:48:57.475Z,81.00
2022-11-29T22:51:35.890Z,77.70
2022-11-29T22:54:05.291Z,75.93
2022-11-29T22:56:37.548Z,75.50
2022-11-29T22:59:04.527Z,71.73
2022-11-29T23:01:33.538Z,72.80
2022-11-29T23:04:03.815Z,69.67
2022-11-29T23:06:32.817Z,75.83
2022-11-29T23:09:05.406Z,69.47
2022-11-29T23:11:32.525Z,66.30
2022-11-29T23:14:00.270Z,77.07
2022-11-29T23:16:29.423Z,84.90
2022-11-29T23:19:00.821Z,94.30
2022-11-29T23:21:32.721Z,92.50
2022-11-29T23:24:02.648Z,107.10
2022-11-29T23:26:40.657Z,118.33
2022-11-29T23:29:10.340Z,111.70
2022-11-29T23:31:37.236Z,135.00
2022-11-29T23:34:04.590Z,149.87
2022-11-29T23:36:31.379Z,154.07
2022-11-29T23:38:58.008Z,170.40
2022-11-29T23:41:24.885Z,178.00
2022-11-29T23:43:51.488Z,189.83
2022-11-29T23:46:21.349Z,181.27
2022-11-29T23:48:48.765Z,193.67
2022-11-29T23:51:16.382Z,324.33
2022-11-29T23:53:43.384Z,249.13
2022-11-29T23:56:15.359Z,411.37
2022-11-29T23:58:43.006Z,555.67
